sensor_id;sensor_type;location;lat;lon;timestamp;pressure;altitude;pressure_sealevel;temperature;humidity
56630;BME280;42502;40.732;-74.254;2022-09-01T00:00:57;100086.19;;;32.53;34.33
56630;BME280;42502;40.732;-74.254;2022-09-01T00:02:58;100084.13;;;32.53;34.36
56630;BME280;42502;40.732;-74.254;2022-09-01T00:04:59;100093.50;;;32.54;33.95
56630;BME280;42502;40.732;-74.254;2022-09-01T00:07:01;100089.06;;;32.53;33.89
56630;BME280;42502;40.732;-74.254;2022-09-01T00:09:04;100094.78;;;32.53;34.24
56630;BME280;42502;40.732;-74.254;2022-09-01T00:11:05;100085.50;;;32.49;33.73
56630;BME280;42502;40.732;-74.254;2022-09-01T00:13:06;100098.78;;;32.55;34.16
56630;BME280;42502;40.732;-74.254;2022-09-01T00:15:09;100095.56;;;32.53;34.09
56630;BME280;42502;40.732;-74.254;2022-09-01T00:17:11;100094.78;;;32.53;33.96
56630;BME280;42502;40.732;-74.254;2022-09-01T00:19:12;100099.22;;;32.54;33.74
56630;BME280;42502;40.732;-74.254;2022-09-01T00:21:12;100104.59;;;32.52;34.25
56630;BME280;42502;40.732;-74.254;2022-09-01T00:23:13;100106.56;;;32.55;33.84
56630;BME280;42502;40.732;-74.254;2022-09-01T00:25:14;100107.78;;;32.54;33.84
56630;BME280;42502;40.732;-74.254;2022-09-01T00:27:18;100102.06;;;32.54;34.36
56630;BME280;42502;40.732;-74.254;2022-09-01T00:29:19;100104.25;;;32.50;34.14
56630;BME280;42502;40.732;-74.254;2022-09-01T00:31:20;100107.78;;;32.54;34.37
56630;BME280;42502;40.732;-74.254;2022-09-01T00:33:21;100107.91;;;32.50;34.14
56630;BME280;42502;40.732;-74.254;2022-09-01T00:35:22;100110.31;;;32.52;34.04
56630;BME280;42502;40.732;-74.254;2022-09-01T00:37:23;100119.22;;;32.54;33.83
56630;BME280;42502;40.732;-74.254;2022-09-01T00:39:24;100112.72;;;32.53;33.75
56630;BME280;42502;40.732;-74.254;2022-09-01T00:41:28;100118.44;;;32.53;33.72
56630;BME280;42502;40.732;-74.254;2022-09-01T00:43:42;100120.50;;;32.53;34.05
56630;BME280;42502;40.732;-74.254;2022-09-01T00:45:45;100122.91;;;32.54;34.01
56630;BME280;42502;40.732;-74.254;2022-09-01T00:47:47;100125.41;;;32.52;34.47
56630;BME280;42502;40.732;-74.254;2022-09-01T00:49:50;100126.56;;;32.55;34.62
56630;BME280;42502;40.732;-74.254;2022-09-01T00:51:59;100133.53;;;32.54;34.48
56630;BME280;42502;40.732;-74.254;2022-09-01T00:54:02;100126.56;;;32.55;34.89
56630;BME280;42502;40.732;-74.254;2022-09-01T00:56:06;100125.41;;;32.52;34.77
56630;BME280;42502;40.732;-74.254;2022-09-01T00:58:07;100129.44;;;32.55;34.70
56630;BME280;42502;40.732;-74.254;2022-09-01T01:00:19;100140.88;;;32.55;34.75
56630;BME280;42502;40.732;-74.254;2022-09-01T01:02:20;100136.03;;;32.52;34.72
56630;BME280;42502;40.732;-74.254;2022-09-01T01:04:21;100132.41;;;32.51;34.54
56630;BME280;42502;40.732;-74.254;2022-09-01T01:06:22;100132.84;;;32.50;34.38
56630;BME280;42502;40.732;-74.254;2022-09-01T01:08:32;100150.69;;;32.54;34.81
56630;BME280;42502;40.732;-74.254;2022-09-01T01:10:39;100147.03;;;32.53;34.32
56630;BME280;42502;40.732;-74.254;2022-09-01T01:12:41;100143.38;;;32.53;34.39
56630;BME280;42502;40.732;-74.254;2022-09-01T01:14:45;100134.09;;;32.49;34.36
56630;BME280;42502;40.732;-74.254;2022-09-01T01:16:49;100145.41;;;32.52;34.38
56630;BME280;42502;40.732;-74.254;2022-09-01T01:18:51;100135.72;;;32.50;34.46
56630;BME280;42502;40.732;-74.254;2022-09-01T01:21:03;100135.00;;;32.46;34.47
56630;BME280;42502;40.732;-74.254;2022-09-01T01:23:35;100144.63;;;32.52;34.18
56630;BME280;42502;40.732;-74.254;2022-09-01T01:25:58;100136.25;;;32.45;34.50
56630;BME280;42502;40.732;-74.254;2022-09-01T01:30:23;100151.59;;;32.51;34.46
56630;BME280;42502;40.732;-74.254;2022-09-01T01:32:24;100145.06;;;32.50;34.50
56630;BME280;42502;40.732;-74.254;2022-09-01T01:34:25;100146.44;;;32.46;34.39
56630;BME280;42502;40.732;-74.254;2022-09-01T01:36:31;100149.28;;;32.46;34.25
56630;BME280;42502;40.732;-74.254;2022-09-01T01:38:35;100156.97;;;32.49;34.33
56630;BME280;42502;40.732;-74.254;2022-09-01T01:40:37;100160.38;;;32.44;34.22
56630;BME280;42502;40.732;-74.254;2022-09-01T01:42:37;100156.66;;;32.30;32.89
56630;BME280;42502;40.732;-74.254;2022-09-01T01:44:38;100164.94;;;32.24;32.18
56630;BME280;42502;40.732;-74.254;2022-09-01T01:46:43;100163.63;;;32.13;31.41
56630;BME280;42502;40.732;-74.254;2022-09-01T01:48:44;100156.03;;;31.89;30.40
56630;BME280;42502;40.732;-74.254;2022-09-01T01:50:46;100156.22;;;31.66;30.04
56630;BME280;42502;40.732;-74.254;2022-09-01T01:52:48;100144.78;;;31.46;29.26
56630;BME280;42502;40.732;-74.254;2022-09-01T01:54:49;100163.50;;;31.30;29.39
56630;BME280;42502;40.732;-74.254;2022-09-01T01:56:50;100157.75;;;31.14;28.84
56630;BME280;42502;40.732;-74.254;2022-09-01T01:58:55;100159.72;;;30.97;28.68
56630;BME280;42502;40.732;-74.254;2022-09-01T02:00:57;100156.72;;;30.84;28.46
56630;BME280;42502;40.732;-74.254;2022-09-01T02:02:58;100150.84;;;30.71;27.91
56630;BME280;42502;40.732;-74.254;2022-09-01T02:04:59;100160.81;;;30.63;27.71
56630;BME280;42502;40.732;-74.254;2022-09-01T02:06:59;100152.94;;;30.47;27.46
56630;BME280;42502;40.732;-74.254;2022-09-01T02:09:00;100158.81;;;30.40;27.55
56630;BME280;42502;40.732;-74.254;2022-09-01T02:11:04;100155.31;;;30.28;26.92
56630;BME280;42502;40.732;-74.254;2022-09-01T02:13:05;100170.53;;;30.18;27.66
56630;BME280;42502;40.732;-74.254;2022-09-01T02:15:15;100146.34;;;30.06;27.11
56630;BME280;42502;40.732;-74.254;2022-09-01T02:17:16;100154.19;;;29.99;27.29
56630;BME280;42502;40.732;-74.254;2022-09-01T02:19:17;100169.91;;;29.83;27.46
56630;BME280;42502;40.732;-74.254;2022-09-01T02:21:22;100165.28;;;29.66;26.98
56630;BME280;42502;40.732;-74.254;2022-09-01T02:23:23;100161.41;;;29.52;27.07
56630;BME280;42502;40.732;-74.254;2022-09-01T02:25:24;100171.25;;;29.44;27.28
56630;BME280;42502;40.732;-74.254;2022-09-01T02:27:26;100160.19;;;29.22;27.45
56630;BME280;42502;40.732;-74.254;2022-09-01T02:29:29;100177.72;;;29.17;27.49
56630;BME280;42502;40.732;-74.254;2022-09-01T02:31:34;100178.16;;;29.12;27.14
56630;BME280;42502;40.732;-74.254;2022-09-01T02:33:36;100179.16;;;28.98;27.40
56630;BME280;42502;40.732;-74.254;2022-09-01T02:35:37;100180.06;;;28.92;27.31
56630;BME280;42502;40.732;-74.254;2022-09-01T02:37:41;100173.69;;;28.80;27.25
56630;BME280;42502;40.732;-74.254;2022-09-01T02:39:42;100178.28;;;28.70;27.08
56630;BME280;42502;40.732;-74.254;2022-09-01T02:41:43;100176.38;;;28.57;27.20
56630;BME280;42502;40.732;-74.254;2022-09-01T02:43:45;100179.34;;;28.42;27.17
56630;BME280;42502;40.732;-74.254;2022-09-01T02:45:47;100186.72;;;28.36;27.07
56630;BME280;42502;40.732;-74.254;2022-09-01T02:47:51;100185.97;;;28.28;26.90
56630;BME280;42502;40.732;-74.254;2022-09-01T02:49:53;100189.59;;;28.32;27.31
56630;BME280;42502;40.732;-74.254;2022-09-01T02:51:55;100191.94;;;28.41;28.15
56630;BME280;42502;40.732;-74.254;2022-09-01T02:54:00;100185.38;;;28.48;28.25
56630;BME280;42502;40.732;-74.254;2022-09-01T02:56:03;100194.25;;;28.53;28.43
56630;BME280;42502;40.732;-74.254;2022-09-01T02:58:09;100189.75;;;28.60;29.06
56630;BME280;42502;40.732;-74.254;2022-09-01T03:00:17;100194.97;;;28.65;29.35
56630;BME280;42502;40.732;-74.254;2022-09-01T03:02:28;100185.59;;;28.68;29.29
56630;BME280;42502;40.732;-74.254;2022-09-01T03:04:29;100193.69;;;28.73;29.72
56630;BME280;42502;40.732;-74.254;2022-09-01T03:06:35;100191.59;;;28.77;29.97
56630;BME280;42502;40.732;-74.254;2022-09-01T03:08:37;100186.69;;;28.81;29.71
56630;BME280;42502;40.732;-74.254;2022-09-01T03:10:40;100195.97;;;28.85;30.13
56630;BME280;42502;40.732;-74.254;2022-09-01T03:12:41;100193.91;;;28.89;30.22
56630;BME280;42502;40.732;-74.254;2022-09-01T03:14:42;100193.84;;;28.93;30.21
56630;BME280;42502;40.732;-74.254;2022-09-01T03:16:45;100188.13;;;28.97;30.40
56630;BME280;42502;40.732;-74.254;2022-09-01T03:18:46;100195.78;;;29.00;30.26
56630;BME280;42502;40.732;-74.254;2022-09-01T03:20:46;100183.19;;;29.01;30.66
56630;BME280;42502;40.732;-74.254;2022-09-01T03:22:52;100180.72;;;29.03;30.34
56630;BME280;42502;40.732;-74.254;2022-09-01T03:24:54;100181.06;;;29.09;30.64
56630;BME280;42502;40.732;-74.254;2022-09-01T03:26:55;100176.56;;;29.11;30.44
56630;BME280;42502;40.732;-74.254;2022-09-01T03:28:56;100184.69;;;29.13;30.82
56630;BME280;42502;40.732;-74.254;2022-09-01T03:30:58;100190.28;;;29.20;30.46
56630;BME280;42502;40.732;-74.254;2022-09-01T03:33:00;100176.50;;;29.18;30.53
56630;BME280;42502;40.732;-74.254;2022-09-01T03:35:02;100173.19;;;29.23;30.78
56630;BME280;42502;40.732;-74.254;2022-09-01T03:37:03;100166.72;;;29.23;30.56
56630;BME280;42502;40.732;-74.254;2022-09-01T03:39:06;100173.13;;;29.27;30.94
56630;BME280;42502;40.732;-74.254;2022-09-01T03:41:10;100174.69;;;29.32;31.04
56630;BME280;42502;40.732;-74.254;2022-09-01T03:43:12;100176.38;;;29.29;31.31
56630;BME280;42502;40.732;-74.254;2022-09-01T03:45:13;100181.16;;;29.36;30.79
56630;BME280;42502;40.732;-74.254;2022-09-01T03:47:15;100176.31;;;29.33;30.88
56630;BME280;42502;40.732;-74.254;2022-09-01T03:49:16;100187.59;;;29.40;30.85
56630;BME280;42502;40.732;-74.254;2022-09-01T03:51:25;100180.22;;;29.42;31.01
56630;BME280;42502;40.732;-74.254;2022-09-01T03:53:30;100186.75;;;29.43;31.03
56630;BME280;42502;40.732;-74.254;2022-09-01T03:55:33;100190.34;;;29.47;31.39
56630;BME280;42502;40.732;-74.254;2022-09-01T03:57:34;100191.16;;;29.48;31.49
56630;BME280;42502;40.732;-74.254;2022-09-01T03:59:40;100193.94;;;29.51;31.09
56630;BME280;42502;40.732;-74.254;2022-09-01T04:01:44;100190.66;;;29.53;31.58
56630;BME280;42502;40.732;-74.254;2022-09-01T04:03:45;100187.38;;;29.54;31.00
56630;BME280;42502;40.732;-74.254;2022-09-01T04:05:49;100192.66;;;29.56;31.18
56630;BME280;42502;40.732;-74.254;2022-09-01T04:07:51;100198.75;;;29.58;31.62
56630;BME280;42502;40.732;-74.254;2022-09-01T04:09:51;100191.44;;;29.57;31.46
56630;BME280;42502;40.732;-74.254;2022-09-01T04:11:53;100198.69;;;29.62;31.76
56630;BME280;42502;40.732;-74.254;2022-09-01T04:13:54;100195.41;;;29.63;31.54
56630;BME280;42502;40.732;-74.254;2022-09-01T04:15:56;100201.09;;;29.63;31.71
56630;BME280;42502;40.732;-74.254;2022-09-01T04:17:57;100190.06;;;29.65;31.69
56630;BME280;42502;40.732;-74.254;2022-09-01T04:20:11;100193.31;;;29.67;31.58
56630;BME280;42502;40.732;-74.254;2022-09-01T04:22:14;100191.69;;;29.66;31.48
56630;BME280;42502;40.732;-74.254;2022-09-01T04:24:17;100192.88;;;29.69;31.71
56630;BME280;42502;40.732;-74.254;2022-09-01T04:26:18;100196.88;;;29.71;31.87
56630;BME280;42502;40.732;-74.254;2022-09-01T04:28:25;100192.03;;;29.72;31.89
56630;BME280;42502;40.732;-74.254;2022-09-01T04:30:32;100195.66;;;29.72;31.61
56630;BME280;42502;40.732;-74.254;2022-09-01T04:32:33;100196.84;;;29.75;31.46
56630;BME280;42502;40.732;-74.254;2022-09-01T04:34:36;100192.38;;;29.74;31.90
56630;BME280;42502;40.732;-74.254;2022-09-01T04:36:39;100187.50;;;29.74;31.90
56630;BME280;42502;40.732;-74.254;2022-09-01T04:38:41;100193.94;;;29.78;31.96
56630;BME280;42502;40.732;-74.254;2022-09-01T04:40:41;100195.56;;;29.80;31.49
56630;BME280;42502;40.732;-74.254;2022-09-01T04:42:42;100203.69;;;29.81;32.02
56630;BME280;42502;40.732;-74.254;2022-09-01T04:44:44;100199.19;;;29.80;31.69
56630;BME280;42502;40.732;-74.254;2022-09-01T04:46:46;100191.53;;;29.77;31.74
56630;BME280;42502;40.732;-74.254;2022-09-01T04:48:51;100200.44;;;29.83;32.14
56630;BME280;42502;40.732;-74.254;2022-09-01T04:50:52;100198.38;;;29.83;31.51
56630;BME280;42502;40.732;-74.254;2022-09-01T04:52:59;100195.53;;;29.83;31.90
56630;BME280;42502;40.732;-74.254;2022-09-01T04:55:00;100191.09;;;29.82;31.78
56630;BME280;42502;40.732;-74.254;2022-09-01T04:57:02;100190.59;;;29.87;32.15
56630;BME280;42502;40.732;-74.254;2022-09-01T04:59:06;100195.97;;;29.82;32.27
56630;BME280;42502;40.732;-74.254;2022-09-01T05:01:14;100205.25;;;29.86;32.09
56630;BME280;42502;40.732;-74.254;2022-09-01T05:03:15;100199.94;;;29.88;32.04
56630;BME280;42502;40.732;-74.254;2022-09-01T05:05:22;100199.56;;;29.86;32.14
56630;BME280;42502;40.732;-74.254;2022-09-01T05:07:26;100197.91;;;29.88;31.75
56630;BME280;42502;40.732;-74.254;2022-09-01T05:09:29;100206.00;;;29.90;31.72
56630;BME280;42502;40.732;-74.254;2022-09-01T05:11:32;100197.06;;;29.88;31.98
56630;BME280;42502;40.732;-74.254;2022-09-01T05:13:34;100195.84;;;29.89;32.02
56630;BME280;42502;40.732;-74.254;2022-09-01T05:15:41;100197.47;;;29.90;31.92
56630;BME280;42502;40.732;-74.254;2022-09-01T05:17:45;100201.13;;;29.90;32.01
56630;BME280;42502;40.732;-74.254;2022-09-01T05:19:47;100200.69;;;29.92;32.03
56630;BME280;42502;40.732;-74.254;2022-09-01T05:21:49;100198.19;;;29.94;32.06
56630;BME280;42502;40.732;-74.254;2022-09-01T05:23:51;100198.19;;;29.94;32.17
56630;BME280;42502;40.732;-74.254;2022-09-01T05:25:53;100195.00;;;29.92;31.81
56630;BME280;42502;40.732;-74.254;2022-09-01T05:27:54;100199.03;;;29.94;31.77
56630;BME280;42502;40.732;-74.254;2022-09-01T05:29:55;100195.34;;;29.94;31.78
56630;BME280;42502;40.732;-74.254;2022-09-01T05:31:59;100198.63;;;29.92;31.54
56630;BME280;42502;40.732;-74.254;2022-09-01T05:34:08;100195.78;;;29.92;32.07
56630;BME280;42502;40.732;-74.254;2022-09-01T05:36:10;100201.03;;;29.94;31.73
56630;BME280;42502;40.732;-74.254;2022-09-01T05:38:11;100203.03;;;29.97;31.85
56630;BME280;42502;40.732;-74.254;2022-09-01T05:40:13;100207.94;;;29.97;32.03
56630;BME280;42502;40.732;-74.254;2022-09-01T05:42:15;100206.69;;;29.98;32.04
56630;BME280;42502;40.732;-74.254;2022-09-01T05:44:17;100211.16;;;29.99;32.07
56630;BME280;42502;40.732;-74.254;2022-09-01T05:46:21;100211.56;;;29.97;31.85
56630;BME280;42502;40.732;-74.254;2022-09-01T05:48:26;100223.34;;;29.99;31.88
56630;BME280;42502;40.732;-74.254;2022-09-01T05:50:39;100222.53;;;29.99;31.58
56630;BME280;42502;40.732;-74.254;2022-09-01T05:52:44;100212.00;;;29.95;31.86
56630;BME280;42502;40.732;-74.254;2022-09-01T05:54:47;100211.16;;;29.99;32.02
56630;BME280;42502;40.732;-74.254;2022-09-01T05:56:48;100206.31;;;29.95;31.90
56630;BME280;42502;40.732;-74.254;2022-09-01T05:58:52;100211.97;;;29.99;31.70
56630;BME280;42502;40.732;-74.254;2022-09-01T06:00:54;100209.91;;;30.00;32.01
56630;BME280;42502;40.732;-74.254;2022-09-01T06:02:59;100207.88;;;30.00;32.07
56630;BME280;42502;40.732;-74.254;2022-09-01T06:05:00;100199.75;;;29.99;31.88
56630;BME280;42502;40.732;-74.254;2022-09-01T06:07:01;100207.06;;;30.00;32.08
56630;BME280;42502;40.732;-74.254;2022-09-01T06:09:14;100206.28;;;29.99;32.10
56630;BME280;42502;40.732;-74.254;2022-09-01T06:11:18;100201.38;;;30.00;31.71
56630;BME280;42502;40.732;-74.254;2022-09-01T06:13:19;100205.44;;;29.99;31.56
56630;BME280;42502;40.732;-74.254;2022-09-01T06:15:21;100201.44;;;29.96;31.82
56630;BME280;42502;40.732;-74.254;2022-09-01T06:17:24;100209.91;;;30.00;31.59
56630;BME280;42502;40.732;-74.254;2022-09-01T06:19:25;100209.47;;;30.01;31.81
56630;BME280;42502;40.732;-74.254;2022-09-01T06:21:26;100205.84;;;30.01;31.75
56630;BME280;42502;40.732;-74.254;2022-09-01T06:23:28;100207.44;;;30.02;31.88
56630;BME280;42502;40.732;-74.254;2022-09-01T06:25:29;100203.78;;;30.01;31.71
56630;BME280;42502;40.732;-74.254;2022-09-01T06:27:31;100204.59;;;30.02;31.56
56630;BME280;42502;40.732;-74.254;2022-09-01T06:29:33;100207.06;;;30.00;31.56
56630;BME280;42502;40.732;-74.254;2022-09-01T06:31:35;100206.19;;;30.03;31.62
56630;BME280;42502;40.732;-74.254;2022-09-01T06:33:38;100209.84;;;30.03;32.19
56630;BME280;42502;40.732;-74.254;2022-09-01T06:35:43;100201.00;;;29.98;31.87
56630;BME280;42502;40.732;-74.254;2022-09-01T06:37:46;100196.91;;;29.99;32.01
56630;BME280;42502;40.732;-74.254;2022-09-01T06:39:48;100196.09;;;29.98;31.68
56630;BME280;42502;40.732;-74.254;2022-09-01T06:41:49;100209.06;;;30.03;31.86
56630;BME280;42502;40.732;-74.254;2022-09-01T06:43:52;100196.47;;;30.00;31.99
56630;BME280;42502;40.732;-74.254;2022-09-01T06:45:53;100199.75;;;29.99;32.04
56630;BME280;42502;40.732;-74.254;2022-09-01T06:47:54;100203.78;;;30.01;31.88
56630;BME280;42502;40.732;-74.254;2022-09-01T06:49:56;100195.31;;;29.98;32.11
56630;BME280;42502;40.732;-74.254;2022-09-01T06:51:59;100209.06;;;30.03;31.79
56630;BME280;42502;40.732;-74.254;2022-09-01T06:54:02;100196.44;;;30.04;31.99
56630;BME280;42502;40.732;-74.254;2022-09-01T06:56:03;100199.31;;;30.00;32.23
56630;BME280;42502;40.732;-74.254;2022-09-01T06:58:05;100200.50;;;30.03;31.70
56630;BME280;42502;40.732;-74.254;2022-09-01T07:00:09;100200.50;;;30.03;31.73
56630;BME280;42502;40.732;-74.254;2022-09-01T07:02:20;100191.97;;;30.03;31.97
56630;BME280;42502;40.732;-74.254;2022-09-01T07:04:21;100189.13;;;30.03;31.80
56630;BME280;42502;40.732;-74.254;2022-09-01T07:06:23;100193.19;;;30.02;31.70
56630;BME280;42502;40.732;-74.254;2022-09-01T07:08:26;100187.50;;;30.02;31.95
56630;BME280;42502;40.732;-74.254;2022-09-01T07:10:27;100194.44;;;30.01;31.75
56630;BME280;42502;40.732;-74.254;2022-09-01T07:12:29;100181.06;;;29.98;31.79
56630;BME280;42502;40.732;-74.254;2022-09-01T07:14:31;100176.19;;;29.98;31.66
56630;BME280;42502;40.732;-74.254;2022-09-01T07:16:34;100187.50;;;30.02;32.03
56630;BME280;42502;40.732;-74.254;2022-09-01T07:18:39;100191.59;;;30.01;32.22
56630;BME280;42502;40.732;-74.254;2022-09-01T07:20:40;100193.19;;;30.02;31.97
56630;BME280;42502;40.732;-74.254;2022-09-01T07:22:41;100178.22;;;29.98;31.88
56630;BME280;42502;40.732;-74.254;2022-09-01T07:24:42;100185.94;;;29.97;32.24
56630;BME280;42502;40.732;-74.254;2022-09-01T07:26:46;100189.97;;;30.00;31.83
56630;BME280;42502;40.732;-74.254;2022-09-01T07:28:53;100182.31;;;29.97;32.30
56630;BME280;42502;40.732;-74.254;2022-09-01T07:30:54;100195.69;;;30.00;32.12
56630;BME280;42502;40.732;-74.254;2022-09-01T07:32:56;100196.47;;;30.00;31.81
56630;BME280;42502;40.732;-74.254;2022-09-01T07:34:57;100192.47;;;29.98;32.14
56630;BME280;42502;40.732;-74.254;2022-09-01T07:36:57;100188.88;;;29.93;31.84
56630;BME280;42502;40.732;-74.254;2022-09-01T07:38:59;100192.06;;;29.95;32.06
56630;BME280;42502;40.732;-74.254;2022-09-01T07:41:01;100200.19;;;29.97;32.18
56630;BME280;42502;40.732;-74.254;2022-09-01T07:43:01;100194.88;;;29.99;32.28
56630;BME280;42502;40.732;-74.254;2022-09-01T07:45:09;100203.84;;;29.98;31.90
56630;BME280;42502;40.732;-74.254;2022-09-01T07:47:10;100208.28;;;29.99;31.73
56630;BME280;42502;40.732;-74.254;2022-09-01T07:49:13;100201.00;;;29.98;31.87
56630;BME280;42502;40.732;-74.254;2022-09-01T07:51:17;100207.94;;;29.97;32.07
56630;BME280;42502;40.732;-74.254;2022-09-01T07:53:22;100207.13;;;29.96;31.93
56630;BME280;42502;40.732;-74.254;2022-09-01T07:55:23;100210.78;;;29.97;32.04
56630;BME280;42502;40.732;-74.254;2022-09-01T07:57:24;100206.31;;;29.95;32.21
56630;BME280;42502;40.732;-74.254;2022-09-01T07:59:24;100210.78;;;29.97;32.23
56630;BME280;42502;40.732;-74.254;2022-09-01T08:01:27;100214.41;;;29.97;32.10
56630;BME280;42502;40.732;-74.254;2022-09-01T08:03:29;100216.47;;;29.97;32.28
56630;BME280;42502;40.732;-74.254;2022-09-01T08:05:30;100203.47;;;29.95;32.11
56630;BME280;42502;40.732;-74.254;2022-09-01T08:07:31;100206.38;;;29.92;31.77
56630;BME280;42502;40.732;-74.254;2022-09-01T08:09:35;100186.22;;;29.79;31.84
56630;BME280;42502;40.732;-74.254;2022-09-01T08:11:37;100217.34;;;29.93;32.24
56630;BME280;42502;40.732;-74.254;2022-09-01T08:13:38;100217.78;;;29.92;32.42
56630;BME280;42502;40.732;-74.254;2022-09-01T08:15:39;100220.19;;;29.93;32.19
56630;BME280;42502;40.732;-74.254;2022-09-01T08:17:40;100218.56;;;29.92;31.94
56630;BME280;42502;40.732;-74.254;2022-09-01T08:19:41;100222.28;;;29.89;32.19
56630;BME280;42502;40.732;-74.254;2022-09-01T08:21:42;100231.22;;;29.91;32.28
56630;BME280;42502;40.732;-74.254;2022-09-01T08:23:44;100222.25;;;29.93;32.26
56630;BME280;42502;40.732;-74.254;2022-09-01T08:25:47;100229.59;;;29.90;32.38
56630;BME280;42502;40.732;-74.254;2022-09-01T08:27:48;100218.69;;;29.85;32.25
56630;BME280;42502;40.732;-74.254;2022-09-01T08:29:48;100231.63;;;29.90;32.29
56630;BME280;42502;40.732;-74.254;2022-09-01T08:31:49;100234.53;;;29.86;32.13
56630;BME280;42502;40.732;-74.254;2022-09-01T08:33:51;100224.44;;;29.82;32.29
56630;BME280;42502;40.732;-74.254;2022-09-01T08:35:52;100234.91;;;29.88;32.20
56630;BME280;42502;40.732;-74.254;2022-09-01T08:37:53;100230.50;;;29.84;32.26
56630;BME280;42502;40.732;-74.254;2022-09-01T08:39:53;100237.78;;;29.88;32.32
56630;BME280;42502;40.732;-74.254;2022-09-01T08:46:25;100239.00;;;29.87;31.88
56630;BME280;42502;40.732;-74.254;2022-09-01T08:48:39;100238.63;;;29.85;32.42
56630;BME280;42502;40.732;-74.254;2022-09-01T08:50:44;100245.91;;;29.86;31.86
56630;BME280;42502;40.732;-74.254;2022-09-01T08:52:56;100248.75;;;29.86;32.32
56630;BME280;42502;40.732;-74.254;2022-09-01T08:55:40;100243.13;;;29.83;32.12
56630;BME280;42502;40.732;-74.254;2022-09-01T08:57:44;100243.06;;;29.86;31.86
56630;BME280;42502;40.732;-74.254;2022-09-01T08:59:45;100239.44;;;29.86;32.24
56630;BME280;42502;40.732;-74.254;2022-09-01T09:08:57;100247.19;;;29.82;32.15
56630;BME280;42502;40.732;-74.254;2022-09-01T09:11:26;100252.09;;;29.81;32.43
56630;BME280;42502;40.732;-74.254;2022-09-01T09:17:57;100261.03;;;29.80;32.49
56630;BME280;42502;40.732;-74.254;2022-09-01T09:20:00;100268.78;;;29.79;32.23
56630;BME280;42502;40.732;-74.254;2022-09-01T09:22:15;100276.50;;;29.78;32.27
56630;BME280;42502;40.732;-74.254;2022-09-01T09:24:29;100268.38;;;29.77;32.09
56630;BME280;42502;40.732;-74.254;2022-09-01T09:26:50;100276.50;;;29.78;31.98
56630;BME280;42502;40.732;-74.254;2022-09-01T09:28:52;100286.28;;;29.77;32.09
56630;BME280;42502;40.732;-74.254;2022-09-01T09:33:38;100288.75;;;29.75;32.36
56630;BME280;42502;40.732;-74.254;2022-09-01T09:35:43;100286.31;;;29.74;32.45
56630;BME280;42502;40.732;-74.254;2022-09-01T09:37:45;100284.78;;;29.69;32.21
56630;BME280;42502;40.732;-74.254;2022-09-01T09:42:14;100287.94;;;29.75;32.55
56630;BME280;42502;40.732;-74.254;2022-09-01T09:44:24;100293.25;;;29.73;32.11
56630;BME280;42502;40.732;-74.254;2022-09-01T09:46:36;100292.09;;;29.70;32.12
56630;BME280;42502;40.732;-74.254;2022-09-01T09:48:37;100293.66;;;29.71;32.12
56630;BME280;42502;40.732;-74.254;2022-09-01T09:50:40;100297.78;;;29.70;32.45
56630;BME280;42502;40.732;-74.254;2022-09-01T09:52:42;100300.63;;;29.70;32.31
56630;BME280;42502;40.732;-74.254;2022-09-01T09:55:04;100301.91;;;29.66;32.53
56630;BME280;42502;40.732;-74.254;2022-09-01T09:59:30;100301.91;;;29.66;32.48
56630;BME280;42502;40.732;-74.254;2022-09-01T10:01:32;100307.59;;;29.66;32.61
56630;BME280;42502;40.732;-74.254;2022-09-01T10:03:39;100306.34;;;29.67;32.65
56630;BME280;42502;40.732;-74.254;2022-09-01T10:05:45;100310.44;;;29.66;32.11
56630;BME280;42502;40.732;-74.254;2022-09-01T10:07:53;100310.88;;;29.64;32.07
56630;BME280;42502;40.732;-74.254;2022-09-01T10:09:59;100316.56;;;29.64;32.59
56630;BME280;42502;40.732;-74.254;2022-09-01T10:12:00;100314.94;;;29.63;32.21
56630;BME280;42502;40.732;-74.254;2022-09-01T10:14:15;100310.09;;;29.60;32.36
56630;BME280;42502;40.732;-74.254;2022-09-01T10:16:23;100315.38;;;29.62;32.55
56630;BME280;42502;40.732;-74.254;2022-09-01T10:18:29;100321.06;;;29.62;32.63
56630;BME280;42502;40.732;-74.254;2022-09-01T10:20:33;100313.31;;;29.62;32.30
56630;BME280;42502;40.732;-74.254;2022-09-01T10:22:38;100321.50;;;29.60;32.12
56630;BME280;42502;40.732;-74.254;2022-09-01T10:24:39;100325.13;;;29.60;32.12
56630;BME280;42502;40.732;-74.254;2022-09-01T10:26:41;100323.13;;;29.57;32.32
56630;BME280;42502;40.732;-74.254;2022-09-01T10:29:04;100327.22;;;29.56;32.30
56630;BME280;42502;40.732;-74.254;2022-09-01T10:31:06;100323.56;;;29.56;32.50
56630;BME280;42502;40.732;-74.254;2022-09-01T10:33:09;100323.13;;;29.57;32.70
56630;BME280;42502;40.732;-74.254;2022-09-01T10:35:28;100330.50;;;29.55;32.75
56630;BME280;42502;40.732;-74.254;2022-09-01T10:37:30;100324.38;;;29.56;32.32
56630;BME280;42502;40.732;-74.254;2022-09-01T10:39:31;100331.31;;;29.55;32.16
56630;BME280;42502;40.732;-74.254;2022-09-01T10:43:45;100335.38;;;29.54;32.72
56630;BME280;42502;40.732;-74.254;2022-09-01T10:45:47;100336.63;;;29.53;32.21
56630;BME280;42502;40.732;-74.254;2022-09-01T10:47:48;100328.09;;;29.53;32.29
56630;BME280;42502;40.732;-74.254;2022-09-01T10:51:49;100335.44;;;29.51;32.45
56630;BME280;42502;40.732;-74.254;2022-09-01T10:53:53;100335.44;;;29.51;32.34
56630;BME280;42502;40.732;-74.254;2022-09-01T10:58:17;100334.63;;;29.50;32.38
56630;BME280;42502;40.732;-74.254;2022-09-01T11:02:20;100341.13;;;29.51;32.59
56630;BME280;42502;40.732;-74.254;2022-09-01T11:08:46;100334.72;;;29.43;32.42